Terminal Aerodrome Forecast
Issued by NWS

Home | Current Version | Previous Version | Text Only | Print | Product List | Glossary On
Versions: 1 2 3 4 5 6 7 8 9 10 11 12 13 14 15 16 17 18 19 20 21 22 23 24 25 26 27 28 29 30 31 32 33 34 35 36 37 38 39 40 41 42 43 44 45 46 47 48 49 50
000
FTUS44 KHGX 010526
TAFLBX
TAF
KLBX 010526Z 0106/0206 13008KT P6SM SCT015
      TEMPO 0106/0110 4SM BR BKN015
     FM011000 15005KT 3SM BR BKN010
     FM011500 20007KT P6SM BKN015
     FM011900 22012G19KT P6SM VCSH BKN015
     FM020100 35015G25KT P6SM BKN020 OVC050=

USA.gov is the U.S. government's official web portal to all federal, state and local government web resources and services.